sensor_id;sensor_type;location;lat;lon;timestamp;P1;durP1;ratioP1;P2;durP2;ratioP2
54460;SDS011;69977;49.414;11.010;2024-01-30T00:02:11;12.37;;;7.57;;
54460;SDS011;69977;49.414;11.010;2024-01-30T00:04:37;8.23;;;7.27;;
54460;SDS011;69977;49.414;11.010;2024-01-30T00:07:03;8.93;;;7.63;;
54460;SDS011;69977;49.414;11.010;2024-01-30T00:09:29;8.73;;;7.30;;
54460;SDS011;69977;49.414;11.010;2024-01-30T00:11:55;10.93;;;7.57;;
54460;SDS011;69977;49.414;11.010;2024-01-30T00:14:21;7.77;;;6.83;;
54460;SDS011;69977;49.414;11.010;2024-01-30T00:16:48;11.50;;;8.20;;
54460;SDS011;69977;49.414;11.010;2024-01-30T00:19:14;9.60;;;7.60;;
54460;SDS011;69977;49.414;11.010;2024-01-30T00:21:40;11.33;;;7.43;;
54460;SDS011;69977;49.414;11.010;2024-01-30T00:24:06;10.97;;;7.40;;
54460;SDS011;69977;49.414;11.010;2024-01-30T00:26:32;10.50;;;7.27;;
54460;SDS011;69977;49.414;11.010;2024-01-30T00:28:58;10.43;;;6.90;;
54460;SDS011;69977;49.414;11.010;2024-01-30T00:31:24;11.60;;;7.03;;
54460;SDS011;69977;49.414;11.010;2024-01-30T00:33:50;9.20;;;7.07;;
54460;SDS011;69977;49.414;11.010;2024-01-30T00:36:16;11.37;;;7.87;;
54460;SDS011;69977;49.414;11.010;2024-01-30T00:38:42;9.37;;;7.40;;
54460;SDS011;69977;49.414;11.010;2024-01-30T00:41:08;11.47;;;8.03;;
54460;SDS011;69977;49.414;11.010;2024-01-30T00:43:35;13.87;;;8.27;;
54460;SDS011;69977;49.414;11.010;2024-01-30T00:46:01;10.57;;;7.60;;
54460;SDS011;69977;49.414;11.010;2024-01-30T00:48:27;10.70;;;7.90;;
54460;SDS011;69977;49.414;11.010;2024-01-30T00:50:53;9.13;;;7.53;;
54460;SDS011;69977;49.414;11.010;2024-01-30T00:53:19;11.73;;;7.57;;
54460;SDS011;69977;49.414;11.010;2024-01-30T00:55:45;9.57;;;7.13;;
54460;SDS011;69977;49.414;11.010;2024-01-30T00:58:11;11.13;;;7.13;;
54460;SDS011;69977;49.414;11.010;2024-01-30T01:00:36;10.43;;;6.93;;
54460;SDS011;69977;49.414;11.010;2024-01-30T01:03:02;10.63;;;7.57;;
54460;SDS011;69977;49.414;11.010;2024-01-30T01:05:28;10.77;;;8.17;;
54460;SDS011;69977;49.414;11.010;2024-01-30T01:07:54;8.10;;;6.63;;
54460;SDS011;69977;49.414;11.010;2024-01-30T01:10:20;8.97;;;7.50;;
54460;SDS011;69977;49.414;11.010;2024-01-30T01:12:47;11.00;;;7.70;;
54460;SDS011;69977;49.414;11.010;2024-01-30T01:15:13;8.17;;;6.53;;
54460;SDS011;69977;49.414;11.010;2024-01-30T01:17:39;10.07;;;6.90;;
54460;SDS011;69977;49.414;11.010;2024-01-30T01:20:06;9.43;;;6.47;;
54460;SDS011;69977;49.414;11.010;2024-01-30T01:22:33;7.97;;;7.03;;
54460;SDS011;69977;49.414;11.010;2024-01-30T01:24:59;10.57;;;6.57;;
54460;SDS011;69977;49.414;11.010;2024-01-30T01:27:25;8.67;;;6.50;;
54460;SDS011;69977;49.414;11.010;2024-01-30T01:29:52;9.67;;;7.20;;
54460;SDS011;69977;49.414;11.010;2024-01-30T01:32:18;12.73;;;7.70;;
54460;SDS011;69977;49.414;11.010;2024-01-30T01:34:44;13.37;;;8.13;;
54460;SDS011;69977;49.414;11.010;2024-01-30T01:37:10;10.60;;;7.20;;
54460;SDS011;69977;49.414;11.010;2024-01-30T01:39:36;14.60;;;7.90;;
54460;SDS011;69977;49.414;11.010;2024-01-30T01:42:02;11.27;;;6.77;;
54460;SDS011;69977;49.414;11.010;2024-01-30T01:44:28;8.70;;;6.63;;
54460;SDS011;69977;49.414;11.010;2024-01-30T01:46:54;9.23;;;6.87;;
54460;SDS011;69977;49.414;11.010;2024-01-30T01:49:23;9.20;;;7.00;;
54460;SDS011;69977;49.414;11.010;2024-01-30T01:51:51;8.53;;;6.90;;
54460;SDS011;69977;49.414;11.010;2024-01-30T01:54:22;9.83;;;7.07;;
54460;SDS011;69977;49.414;11.010;2024-01-30T01:56:49;8.13;;;6.77;;
54460;SDS011;69977;49.414;11.010;2024-01-30T01:59:16;11.10;;;6.60;;
54460;SDS011;69977;49.414;11.010;2024-01-30T02:01:43;7.80;;;6.63;;
54460;SDS011;69977;49.414;11.010;2024-01-30T02:04:10;8.53;;;5.80;;
54460;SDS011;69977;49.414;11.010;2024-01-30T02:06:36;10.80;;;6.77;;
54460;SDS011;69977;49.414;11.010;2024-01-30T02:09:03;8.37;;;6.40;;
54460;SDS011;69977;49.414;11.010;2024-01-30T02:11:29;8.17;;;6.27;;
54460;SDS011;69977;49.414;11.010;2024-01-30T02:13:56;7.20;;;5.87;;
54460;SDS011;69977;49.414;11.010;2024-01-30T02:16:27;8.00;;;5.47;;
54460;SDS011;69977;49.414;11.010;2024-01-30T02:18:53;6.80;;;5.77;;
54460;SDS011;69977;49.414;11.010;2024-01-30T02:21:19;9.13;;;5.87;;
54460;SDS011;69977;49.414;11.010;2024-01-30T02:23:46;8.77;;;6.40;;
54460;SDS011;69977;49.414;11.010;2024-01-30T02:26:13;9.03;;;5.80;;
54460;SDS011;69977;49.414;11.010;2024-01-30T02:28:40;7.97;;;6.00;;
54460;SDS011;69977;49.414;11.010;2024-01-30T02:31:06;8.57;;;5.77;;
54460;SDS011;69977;49.414;11.010;2024-01-30T02:36:13;7.17;;;6.20;;
54460;SDS011;69977;49.414;11.010;2024-01-30T02:38:40;8.63;;;5.37;;
54460;SDS011;69977;49.414;11.010;2024-01-30T02:41:06;7.23;;;5.57;;
54460;SDS011;69977;49.414;11.010;2024-01-30T02:43:32;8.63;;;5.37;;
54460;SDS011;69977;49.414;11.010;2024-01-30T02:45:58;9.17;;;6.40;;
54460;SDS011;69977;49.414;11.010;2024-01-30T02:48:26;7.40;;;5.90;;
54460;SDS011;69977;49.414;11.010;2024-01-30T02:50:52;8.20;;;5.70;;
54460;SDS011;69977;49.414;11.010;2024-01-30T02:53:18;7.17;;;5.53;;
54460;SDS011;69977;49.414;11.010;2024-01-30T02:55:43;9.33;;;5.90;;
54460;SDS011;69977;49.414;11.010;2024-01-30T02:58:09;7.07;;;5.27;;
54460;SDS011;69977;49.414;11.010;2024-01-30T03:00:35;6.63;;;5.67;;
54460;SDS011;69977;49.414;11.010;2024-01-30T03:03:01;8.00;;;5.83;;
54460;SDS011;69977;49.414;11.010;2024-01-30T03:05:27;7.70;;;5.60;;
54460;SDS011;69977;49.414;11.010;2024-01-30T03:07:53;5.97;;;5.27;;
54460;SDS011;69977;49.414;11.010;2024-01-30T03:10:19;5.63;;;5.03;;
54460;SDS011;69977;49.414;11.010;2024-01-30T03:12:45;7.93;;;5.43;;
54460;SDS011;69977;49.414;11.010;2024-01-30T03:15:11;7.50;;;5.20;;
54460;SDS011;69977;49.414;11.010;2024-01-30T03:17:37;6.80;;;6.10;;
54460;SDS011;69977;49.414;11.010;2024-01-30T03:20:03;5.63;;;4.87;;
54460;SDS011;69977;49.414;11.010;2024-01-30T03:22:31;6.97;;;6.10;;
54460;SDS011;69977;49.414;11.010;2024-01-30T03:24:57;8.40;;;6.10;;
54460;SDS011;69977;49.414;11.010;2024-01-30T03:27:23;5.73;;;5.20;;
54460;SDS011;69977;49.414;11.010;2024-01-30T03:29:49;6.47;;;5.50;;
54460;SDS011;69977;49.414;11.010;2024-01-30T03:32:14;6.87;;;5.30;;
54460;SDS011;69977;49.414;11.010;2024-01-30T03:34:40;6.80;;;4.97;;
54460;SDS011;69977;49.414;11.010;2024-01-30T03:37:06;7.60;;;4.97;;
54460;SDS011;69977;49.414;11.010;2024-01-30T03:39:32;5.37;;;4.87;;
54460;SDS011;69977;49.414;11.010;2024-01-30T03:41:58;7.17;;;5.33;;
54460;SDS011;69977;49.414;11.010;2024-01-30T03:44:24;8.80;;;5.63;;
54460;SDS011;69977;49.414;11.010;2024-01-30T03:46:50;8.67;;;5.90;;
54460;SDS011;69977;49.414;11.010;2024-01-30T03:49:16;6.43;;;5.37;;
54460;SDS011;69977;49.414;11.010;2024-01-30T03:51:42;10.53;;;5.53;;
54460;SDS011;69977;49.414;11.010;2024-01-30T03:54:08;6.97;;;5.60;;
54460;SDS011;69977;49.414;11.010;2024-01-30T03:56:34;9.27;;;6.63;;
54460;SDS011;69977;49.414;11.010;2024-01-30T03:58:59;6.20;;;5.37;;
54460;SDS011;69977;49.414;11.010;2024-01-30T04:01:28;7.53;;;4.87;;
54460;SDS011;69977;49.414;11.010;2024-01-30T04:03:53;7.37;;;5.73;;
54460;SDS011;69977;49.414;11.010;2024-01-30T04:06:19;6.27;;;5.63;;
54460;SDS011;69977;49.414;11.010;2024-01-30T04:08:45;7.03;;;5.47;;
54460;SDS011;69977;49.414;11.010;2024-01-30T04:11:11;7.27;;;5.50;;
54460;SDS011;69977;49.414;11.010;2024-01-30T04:13:37;7.30;;;5.70;;
54460;SDS011;69977;49.414;11.010;2024-01-30T04:16:03;8.50;;;6.10;;
54460;SDS011;69977;49.414;11.010;2024-01-30T04:18:29;7.43;;;5.80;;
54460;SDS011;69977;49.414;11.010;2024-01-30T04:20:55;8.33;;;5.97;;
54460;SDS011;69977;49.414;11.010;2024-01-30T04:23:21;5.87;;;5.27;;
54460;SDS011;69977;49.414;11.010;2024-01-30T04:25:47;6.97;;;5.83;;
54460;SDS011;69977;49.414;11.010;2024-01-30T04:28:13;6.97;;;5.40;;
54460;SDS011;69977;49.414;11.010;2024-01-30T04:30:39;7.63;;;5.77;;
54460;SDS011;69977;49.414;11.010;2024-01-30T04:33:05;5.47;;;4.97;;
54460;SDS011;69977;49.414;11.010;2024-01-30T04:35:31;7.63;;;5.20;;
54460;SDS011;69977;49.414;11.010;2024-01-30T04:37:57;9.50;;;5.67;;
54460;SDS011;69977;49.414;11.010;2024-01-30T04:40:23;6.93;;;5.60;;
54460;SDS011;69977;49.414;11.010;2024-01-30T04:42:49;7.53;;;5.20;;
54460;SDS011;69977;49.414;11.010;2024-01-30T04:45:15;10.27;;;5.73;;
54460;SDS011;69977;49.414;11.010;2024-01-30T04:47:41;7.37;;;6.47;;
54460;SDS011;69977;49.414;11.010;2024-01-30T04:50:07;10.43;;;6.40;;
54460;SDS011;69977;49.414;11.010;2024-01-30T04:52:34;6.90;;;6.20;;
54460;SDS011;69977;49.414;11.010;2024-01-30T04:55:00;7.80;;;5.93;;
54460;SDS011;69977;49.414;11.010;2024-01-30T04:57:26;9.03;;;6.27;;
54460;SDS011;69977;49.414;11.010;2024-01-30T04:59:52;9.07;;;5.67;;
54460;SDS011;69977;49.414;11.010;2024-01-30T05:02:17;6.53;;;5.73;;
54460;SDS011;69977;49.414;11.010;2024-01-30T05:04:43;7.80;;;6.00;;
54460;SDS011;69977;49.414;11.010;2024-01-30T05:07:09;7.90;;;6.10;;
54460;SDS011;69977;49.414;11.010;2024-01-30T05:09:35;9.33;;;6.27;;
54460;SDS011;69977;49.414;11.010;2024-01-30T05:12:01;7.47;;;5.80;;
54460;SDS011;69977;49.414;11.010;2024-01-30T05:14:27;8.87;;;6.23;;
54460;SDS011;69977;49.414;11.010;2024-01-30T05:16:53;6.47;;;5.87;;
54460;SDS011;69977;49.414;11.010;2024-01-30T05:19:19;7.27;;;5.93;;
54460;SDS011;69977;49.414;11.010;2024-01-30T05:21:46;8.23;;;6.20;;
54460;SDS011;69977;49.414;11.010;2024-01-30T05:24:12;7.37;;;6.33;;
54460;SDS011;69977;49.414;11.010;2024-01-30T05:26:38;7.87;;;6.17;;
54460;SDS011;69977;49.414;11.010;2024-01-30T05:29:04;7.10;;;6.10;;
54460;SDS011;69977;49.414;11.010;2024-01-30T05:31:30;7.73;;;6.40;;
54460;SDS011;69977;49.414;11.010;2024-01-30T05:33:56;7.30;;;6.30;;
54460;SDS011;69977;49.414;11.010;2024-01-30T05:36:22;8.23;;;6.50;;
54460;SDS011;69977;49.414;11.010;2024-01-30T05:38:48;7.00;;;6.07;;
54460;SDS011;69977;49.414;11.010;2024-01-30T05:41:14;7.43;;;5.53;;
54460;SDS011;69977;49.414;11.010;2024-01-30T05:43:40;6.03;;;5.43;;
54460;SDS011;69977;49.414;11.010;2024-01-30T05:46:06;7.83;;;6.33;;
54460;SDS011;69977;49.414;11.010;2024-01-30T05:48:32;8.37;;;5.93;;
54460;SDS011;69977;49.414;11.010;2024-01-30T05:50:58;6.70;;;6.00;;
54460;SDS011;69977;49.414;11.010;2024-01-30T05:53:25;6.70;;;6.00;;
54460;SDS011;69977;49.414;11.010;2024-01-30T05:55:51;8.97;;;6.40;;
54460;SDS011;69977;49.414;11.010;2024-01-30T05:58:17;9.07;;;6.30;;
54460;SDS011;69977;49.414;11.010;2024-01-30T06:00:42;9.43;;;6.47;;
54460;SDS011;69977;49.414;11.010;2024-01-30T06:03:08;10.97;;;6.47;;
54460;SDS011;69977;49.414;11.010;2024-01-30T06:05:34;6.93;;;6.07;;
54460;SDS011;69977;49.414;11.010;2024-01-30T06:08:00;7.20;;;6.27;;
54460;SDS011;69977;49.414;11.010;2024-01-30T06:10:27;8.07;;;5.70;;
54460;SDS011;69977;49.414;11.010;2024-01-30T06:12:53;6.40;;;5.47;;
54460;SDS011;69977;49.414;11.010;2024-01-30T06:15:18;8.20;;;6.60;;
54460;SDS011;69977;49.414;11.010;2024-01-30T06:17:44;6.80;;;6.13;;
54460;SDS011;69977;49.414;11.010;2024-01-30T06:20:10;7.07;;;6.33;;
54460;SDS011;69977;49.414;11.010;2024-01-30T06:22:36;7.33;;;5.83;;
54460;SDS011;69977;49.414;11.010;2024-01-30T06:25:02;8.60;;;6.33;;
54460;SDS011;69977;49.414;11.010;2024-01-30T06:27:28;11.20;;;6.90;;
54460;SDS011;69977;49.414;11.010;2024-01-30T06:29:54;9.03;;;6.20;;
54460;SDS011;69977;49.414;11.010;2024-01-30T06:32:20;11.20;;;6.77;;
54460;SDS011;69977;49.414;11.010;2024-01-30T06:34:46;7.47;;;6.37;;
54460;SDS011;69977;49.414;11.010;2024-01-30T06:37:12;7.83;;;6.87;;
54460;SDS011;69977;49.414;11.010;2024-01-30T06:39:38;8.90;;;7.07;;
54460;SDS011;69977;49.414;11.010;2024-01-30T06:42:04;10.30;;;7.93;;
54460;SDS011;69977;49.414;11.010;2024-01-30T06:44:30;9.73;;;7.30;;
54460;SDS011;69977;49.414;11.010;2024-01-30T06:46:56;10.57;;;7.03;;
54460;SDS011;69977;49.414;11.010;2024-01-30T06:49:22;8.00;;;7.07;;
54460;SDS011;69977;49.414;11.010;2024-01-30T06:51:47;11.37;;;7.97;;
54460;SDS011;69977;49.414;11.010;2024-01-30T06:54:13;8.97;;;7.57;;
54460;SDS011;69977;49.414;11.010;2024-01-30T06:56:39;10.40;;;7.50;;
54460;SDS011;69977;49.414;11.010;2024-01-30T06:59:05;10.43;;;8.03;;
54460;SDS011;69977;49.414;11.010;2024-01-30T07:01:31;8.40;;;7.50;;
54460;SDS011;69977;49.414;11.010;2024-01-30T07:03:57;11.63;;;8.10;;
54460;SDS011;69977;49.414;11.010;2024-01-30T07:06:23;9.77;;;7.90;;
54460;SDS011;69977;49.414;11.010;2024-01-30T07:08:49;10.93;;;7.77;;
54460;SDS011;69977;49.414;11.010;2024-01-30T07:11:19;9.37;;;8.33;;
54460;SDS011;69977;49.414;11.010;2024-01-30T07:13:47;12.67;;;8.30;;
54460;SDS011;69977;49.414;11.010;2024-01-30T07:16:14;8.47;;;7.50;;
54460;SDS011;69977;49.414;11.010;2024-01-30T07:18:40;9.07;;;7.30;;
54460;SDS011;69977;49.414;11.010;2024-01-30T07:21:06;8.97;;;7.67;;
54460;SDS011;69977;49.414;11.010;2024-01-30T07:23:32;12.80;;;7.97;;
54460;SDS011;69977;49.414;11.010;2024-01-30T07:26:00;10.07;;;7.63;;
54460;SDS011;69977;49.414;11.010;2024-01-30T07:28:26;12.30;;;7.77;;
54460;SDS011;69977;49.414;11.010;2024-01-30T07:30:52;9.57;;;7.50;;
54460;SDS011;69977;49.414;11.010;2024-01-30T07:33:18;9.80;;;7.17;;
54460;SDS011;69977;49.414;11.010;2024-01-30T07:35:45;9.80;;;7.47;;
54460;SDS011;69977;49.414;11.010;2024-01-30T07:38:11;9.53;;;8.10;;
54460;SDS011;69977;49.414;11.010;2024-01-30T07:40:37;9.23;;;7.73;;
54460;SDS011;69977;49.414;11.010;2024-01-30T07:43:03;9.50;;;7.97;;
54460;SDS011;69977;49.414;11.010;2024-01-30T07:45:29;11.73;;;8.87;;
54460;SDS011;69977;49.414;11.010;2024-01-30T07:47:58;11.67;;;8.83;;
54460;SDS011;69977;49.414;11.010;2024-01-30T07:50:27;14.80;;;10.03;;
54460;SDS011;69977;49.414;11.010;2024-01-30T07:52:53;10.87;;;9.07;;
54460;SDS011;69977;49.414;11.010;2024-01-30T07:55:20;12.43;;;9.17;;
54460;SDS011;69977;49.414;11.010;2024-01-30T07:57:51;10.73;;;9.50;;
54460;SDS011;69977;49.414;11.010;2024-01-30T08:00:18;13.87;;;10.17;;
54460;SDS011;69977;49.414;11.010;2024-01-30T08:02:47;12.03;;;10.40;;
54460;SDS011;69977;49.414;11.010;2024-01-30T08:05:13;13.20;;;10.50;;
54460;SDS011;69977;49.414;11.010;2024-01-30T08:07:43;14.17;;;10.70;;
54460;SDS011;69977;49.414;11.010;2024-01-30T08:10:11;13.90;;;10.30;;
54460;SDS011;69977;49.414;11.010;2024-01-30T08:12:37;15.83;;;11.40;;
54460;SDS011;69977;49.414;11.010;2024-01-30T08:15:03;11.10;;;9.77;;
54460;SDS011;69977;49.414;11.010;2024-01-30T08:17:30;13.20;;;10.30;;
54460;SDS011;69977;49.414;11.010;2024-01-30T08:19:56;13.97;;;10.37;;
54460;SDS011;69977;49.414;11.010;2024-01-30T08:22:22;15.43;;;11.43;;
54460;SDS011;69977;49.414;11.010;2024-01-30T08:24:48;11.23;;;10.03;;
54460;SDS011;69977;49.414;11.010;2024-01-30T08:27:13;13.07;;;10.80;;
54460;SDS011;69977;49.414;11.010;2024-01-30T08:29:39;12.23;;;9.50;;
54460;SDS011;69977;49.414;11.010;2024-01-30T08:32:05;18.90;;;11.00;;
54460;SDS011;69977;49.414;11.010;2024-01-30T08:34:32;15.50;;;11.53;;
54460;SDS011;69977;49.414;11.010;2024-01-30T08:36:58;11.77;;;9.97;;
54460;SDS011;69977;49.414;11.010;2024-01-30T08:39:24;15.97;;;11.63;;
54460;SDS011;69977;49.414;11.010;2024-01-30T08:41:50;11.27;;;10.10;;
54460;SDS011;69977;49.414;11.010;2024-01-30T08:44:15;17.17;;;11.07;;
54460;SDS011;69977;49.414;11.010;2024-01-30T08:46:43;14.53;;;11.33;;
54460;SDS011;69977;49.414;11.010;2024-01-30T08:49:11;13.27;;;11.20;;
54460;SDS011;69977;49.414;11.010;2024-01-30T08:51:39;14.80;;;10.10;;
54460;SDS011;69977;49.414;11.010;2024-01-30T08:54:05;14.13;;;10.60;;
54460;SDS011;69977;49.414;11.010;2024-01-30T08:56:31;13.80;;;11.20;;
54460;SDS011;69977;49.414;11.010;2024-01-30T08:58:56;14.33;;;11.10;;
54460;SDS011;69977;49.414;11.010;2024-01-30T09:01:22;11.87;;;10.47;;
54460;SDS011;69977;49.414;11.010;2024-01-30T09:03:48;13.37;;;11.50;;
54460;SDS011;69977;49.414;11.010;2024-01-30T09:06:14;13.50;;;10.60;;
54460;SDS011;69977;49.414;11.010;2024-01-30T09:08:40;15.40;;;11.47;;
54460;SDS011;69977;49.414;11.010;2024-01-30T09:11:12;12.20;;;10.87;;
54460;SDS011;69977;49.414;11.010;2024-01-30T09:13:39;14.33;;;10.90;;
54460;SDS011;69977;49.414;11.010;2024-01-30T09:16:05;12.80;;;10.83;;
54460;SDS011;69977;49.414;11.010;2024-01-30T09:18:31;16.13;;;9.90;;
54460;SDS011;69977;49.414;11.010;2024-01-30T09:20:57;14.37;;;11.33;;
54460;SDS011;69977;49.414;11.010;2024-01-30T09:23:23;13.20;;;11.37;;
54460;SDS011;69977;49.414;11.010;2024-01-30T09:25:50;12.77;;;10.30;;
54460;SDS011;69977;49.414;11.010;2024-01-30T09:28:18;12.00;;;10.33;;
54460;SDS011;69977;49.414;11.010;2024-01-30T09:30:44;14.67;;;10.63;;
54460;SDS011;69977;49.414;11.010;2024-01-30T09:33:10;13.37;;;10.83;;
54460;SDS011;69977;49.414;11.010;2024-01-30T09:35:36;13.50;;;10.93;;
54460;SDS011;69977;49.414;11.010;2024-01-30T09:38:02;12.20;;;10.50;;
54460;SDS011;69977;49.414;11.010;2024-01-30T09:40:28;12.03;;;10.00;;
54460;SDS011;69977;49.414;11.010;2024-01-30T09:42:54;13.03;;;9.57;;
54460;SDS011;69977;49.414;11.010;2024-01-30T09:45:24;11.80;;;10.10;;
54460;SDS011;69977;49.414;11.010;2024-01-30T09:47:51;10.73;;;9.63;;
54460;SDS011;69977;49.414;11.010;2024-01-30T09:50:18;12.93;;;10.50;;
54460;SDS011;69977;49.414;11.010;2024-01-30T09:52:44;11.77;;;9.83;;
54460;SDS011;69977;49.414;11.010;2024-01-30T09:55:12;11.50;;;9.63;;
54460;SDS011;69977;49.414;11.010;2024-01-30T09:57:38;12.23;;;9.40;;
54460;SDS011;69977;49.414;11.010;2024-01-30T10:00:06;11.33;;;9.43;;
54460;SDS011;69977;49.414;11.010;2024-01-30T10:02:40;13.87;;;9.80;;
54460;SDS011;69977;49.414;11.010;2024-01-30T10:05:07;10.50;;;9.43;;
54460;SDS011;69977;49.414;11.010;2024-01-30T10:07:33;10.57;;;9.30;;
54460;SDS011;69977;49.414;11.010;2024-01-30T10:10:00;10.60;;;8.50;;
54460;SDS011;69977;49.414;11.010;2024-01-30T10:12:26;11.03;;;8.90;;
54460;SDS011;69977;49.414;11.010;2024-01-30T10:14:53;13.33;;;10.30;;
54460;SDS011;69977;49.414;11.010;2024-01-30T10:17:21;14.37;;;9.30;;
54460;SDS011;69977;49.414;11.010;2024-01-30T10:19:49;11.07;;;9.60;;
54460;SDS011;69977;49.414;11.010;2024-01-30T10:22:16;10.57;;;8.67;;
54460;SDS011;69977;49.414;11.010;2024-01-30T10:24:42;10.27;;;9.20;;
54460;SDS011;69977;49.414;11.010;2024-01-30T10:27:10;13.23;;;8.80;;
54460;SDS011;69977;49.414;11.010;2024-01-30T10:29:37;13.97;;;9.67;;
54460;SDS011;69977;49.414;11.010;2024-01-30T10:32:05;10.10;;;8.97;;
54460;SDS011;69977;49.414;11.010;2024-01-30T10:34:32;11.07;;;9.40;;
54460;SDS011;69977;49.414;11.010;2024-01-30T10:37:08;11.17;;;8.73;;
54460;SDS011;69977;49.414;11.010;2024-01-30T10:39:40;12.23;;;9.20;;
54460;SDS011;69977;49.414;11.010;2024-01-30T10:42:10;12.97;;;9.63;;
54460;SDS011;69977;49.414;11.010;2024-01-30T10:44:55;9.93;;;8.07;;
54460;SDS011;69977;49.414;11.010;2024-01-30T10:47:26;11.13;;;8.80;;
54460;SDS011;69977;49.414;11.010;2024-01-30T10:49:54;11.83;;;9.80;;
54460;SDS011;69977;49.414;11.010;2024-01-30T10:52:20;10.73;;;9.43;;
54460;SDS011;69977;49.414;11.010;2024-01-30T10:54:48;14.23;;;10.53;;
54460;SDS011;69977;49.414;11.010;2024-01-30T10:57:16;9.93;;;8.50;;
54460;SDS011;69977;49.414;11.010;2024-01-30T10:59:42;11.97;;;9.20;;
54460;SDS011;69977;49.414;11.010;2024-01-30T11:02:09;11.67;;;8.90;;
54460;SDS011;69977;49.414;11.010;2024-01-30T11:04:45;10.77;;;8.90;;
54460;SDS011;69977;49.414;11.010;2024-01-30T11:07:15;11.43;;;8.03;;
54460;SDS011;69977;49.414;11.010;2024-01-30T11:09:48;12.67;;;9.30;;
54460;SDS011;69977;49.414;11.010;2024-01-30T11:12:15;13.07;;;9.30;;
54460;SDS011;69977;49.414;11.010;2024-01-30T11:14:41;12.30;;;9.50;;
54460;SDS011;69977;49.414;11.010;2024-01-30T11:17:08;10.73;;;8.43;;
54460;SDS011;69977;49.414;11.010;2024-01-30T11:19:37;12.73;;;8.80;;
54460;SDS011;69977;49.414;11.010;2024-01-30T11:22:06;9.70;;;8.70;;
54460;SDS011;69977;49.414;11.010;2024-01-30T11:24:36;9.33;;;8.20;;
54460;SDS011;69977;49.414;11.010;2024-01-30T11:27:08;10.03;;;7.97;;
54460;SDS011;69977;49.414;11.010;2024-01-30T11:29:35;9.67;;;8.20;;
54460;SDS011;69977;49.414;11.010;2024-01-30T11:32:02;11.13;;;8.37;;
54460;SDS011;69977;49.414;11.010;2024-01-30T11:34:28;9.07;;;8.13;;
54460;SDS011;69977;49.414;11.010;2024-01-30T11:37:03;9.27;;;8.33;;
54460;SDS011;69977;49.414;11.010;2024-01-30T11:39:35;10.13;;;7.37;;
54460;SDS011;69977;49.414;11.010;2024-01-30T11:42:01;8.53;;;7.73;;
54460;SDS011;69977;49.414;11.010;2024-01-30T11:44:30;11.07;;;8.03;;
54460;SDS011;69977;49.414;11.010;2024-01-30T11:46:56;10.90;;;7.83;;
54460;SDS011;69977;49.414;11.010;2024-01-30T11:49:22;10.43;;;8.33;;
54460;SDS011;69977;49.414;11.010;2024-01-30T11:51:48;9.17;;;8.10;;
54460;SDS011;69977;49.414;11.010;2024-01-30T11:54:15;8.77;;;7.93;;
54460;SDS011;69977;49.414;11.010;2024-01-30T11:56:41;11.30;;;8.17;;
54460;SDS011;69977;49.414;11.010;2024-01-30T11:59:08;8.87;;;7.97;;
54460;SDS011;69977;49.414;11.010;2024-01-30T12:01:34;9.17;;;8.10;;
54460;SDS011;69977;49.414;11.010;2024-01-30T12:04:00;9.87;;;8.87;;
54460;SDS011;69977;49.414;11.010;2024-01-30T12:06:26;9.83;;;8.40;;
54460;SDS011;69977;49.414;11.010;2024-01-30T12:08:59;12.87;;;8.40;;
54460;SDS011;69977;49.414;11.010;2024-01-30T12:11:26;8.73;;;7.53;;
54460;SDS011;69977;49.414;11.010;2024-01-30T12:13:55;10.57;;;7.53;;
54460;SDS011;69977;49.414;11.010;2024-01-30T12:16:21;9.73;;;7.60;;
54460;SDS011;69977;49.414;11.010;2024-01-30T12:18:48;10.47;;;7.90;;
54460;SDS011;69977;49.414;11.010;2024-01-30T12:21:17;14.37;;;8.40;;
54460;SDS011;69977;49.414;11.010;2024-01-30T12:23:43;9.27;;;7.53;;
54460;SDS011;69977;49.414;11.010;2024-01-30T12:26:10;10.33;;;7.77;;
54460;SDS011;69977;49.414;11.010;2024-01-30T12:28:36;9.77;;;7.87;;
54460;SDS011;69977;49.414;11.010;2024-01-30T12:31:12;11.57;;;8.63;;
54460;SDS011;69977;49.414;11.010;2024-01-30T12:33:38;8.57;;;7.67;;
54460;SDS011;69977;49.414;11.010;2024-01-30T12:36:04;12.97;;;7.90;;
54460;SDS011;69977;49.414;11.010;2024-01-30T12:38:30;9.73;;;7.33;;
54460;SDS011;69977;49.414;11.010;2024-01-30T12:40:56;9.30;;;8.03;;
54460;SDS011;69977;49.414;11.010;2024-01-30T12:43:26;10.10;;;7.10;;
54460;SDS011;69977;49.414;11.010;2024-01-30T12:45:53;10.97;;;7.47;;
54460;SDS011;69977;49.414;11.010;2024-01-30T12:48:19;10.27;;;7.43;;
54460;SDS011;69977;49.414;11.010;2024-01-30T12:50:45;8.83;;;8.00;;
54460;SDS011;69977;49.414;11.010;2024-01-30T12:53:10;9.53;;;7.63;;
54460;SDS011;69977;49.414;11.010;2024-01-30T12:55:38;9.00;;;8.10;;
54460;SDS011;69977;49.414;11.010;2024-01-30T12:58:03;9.07;;;8.07;;
54460;SDS011;69977;49.414;11.010;2024-01-30T13:00:29;8.70;;;7.73;;
54460;SDS011;69977;49.414;11.010;2024-01-30T13:02:55;9.17;;;7.73;;
54460;SDS011;69977;49.414;11.010;2024-01-30T13:05:21;9.93;;;7.70;;
54460;SDS011;69977;49.414;11.010;2024-01-30T13:07:47;10.03;;;7.77;;
54460;SDS011;69977;49.414;11.010;2024-01-30T13:10:13;8.73;;;6.97;;
54460;SDS011;69977;49.414;11.010;2024-01-30T13:12:40;10.13;;;7.27;;
54460;SDS011;69977;49.414;11.010;2024-01-30T13:15:06;9.23;;;7.27;;
54460;SDS011;69977;49.414;11.010;2024-01-30T13:17:32;11.47;;;7.27;;
54460;SDS011;69977;49.414;11.010;2024-01-30T13:19:58;8.67;;;7.70;;
54460;SDS011;69977;49.414;11.010;2024-01-30T13:22:24;11.10;;;8.20;;
54460;SDS011;69977;49.414;11.010;2024-01-30T13:24:50;9.00;;;7.23;;
54460;SDS011;69977;49.414;11.010;2024-01-30T13:27:16;13.37;;;7.70;;
54460;SDS011;69977;49.414;11.010;2024-01-30T13:29:42;8.50;;;7.20;;
54460;SDS011;69977;49.414;11.010;2024-01-30T13:32:08;9.17;;;8.13;;
54460;SDS011;69977;49.414;11.010;2024-01-30T13:34:34;10.57;;;8.23;;
54460;SDS011;69977;49.414;11.010;2024-01-30T13:37:00;9.20;;;7.43;;
54460;SDS011;69977;49.414;11.010;2024-01-30T13:39:26;10.83;;;7.70;;
54460;SDS011;69977;49.414;11.010;2024-01-30T13:41:53;9.23;;;7.57;;
54460;SDS011;69977;49.414;11.010;2024-01-30T13:44:18;13.40;;;8.10;;
54460;SDS011;69977;49.414;11.010;2024-01-30T13:46:46;11.50;;;7.60;;
54460;SDS011;69977;49.414;11.010;2024-01-30T13:49:12;10.00;;;7.27;;
54460;SDS011;69977;49.414;11.010;2024-01-30T13:51:38;10.13;;;7.93;;
54460;SDS011;69977;49.414;11.010;2024-01-30T13:54:04;9.73;;;8.27;;
54460;SDS011;69977;49.414;11.010;2024-01-30T13:56:29;12.43;;;8.67;;
54460;SDS011;69977;49.414;11.010;2024-01-30T13:58:56;9.67;;;7.33;;
54460;SDS011;69977;49.414;11.010;2024-01-30T14:01:22;10.23;;;7.63;;
54460;SDS011;69977;49.414;11.010;2024-01-30T14:03:49;9.23;;;8.10;;
54460;SDS011;69977;49.414;11.010;2024-01-30T14:06:15;11.40;;;7.87;;
54460;SDS011;69977;49.414;11.010;2024-01-30T14:08:40;10.50;;;8.13;;
54460;SDS011;69977;49.414;11.010;2024-01-30T14:11:06;8.80;;;7.90;;
54460;SDS011;69977;49.414;11.010;2024-01-30T14:13:32;9.47;;;7.73;;
54460;SDS011;69977;49.414;11.010;2024-01-30T14:15:58;10.43;;;7.93;;
54460;SDS011;69977;49.414;11.010;2024-01-30T14:18:24;9.97;;;7.63;;
54460;SDS011;69977;49.414;11.010;2024-01-30T14:20:53;10.63;;;7.70;;
54460;SDS011;69977;49.414;11.010;2024-01-30T14:23:20;8.03;;;7.20;;
54460;SDS011;69977;49.414;11.010;2024-01-30T14:25:46;9.00;;;7.67;;